Latest Coastal Weather Observations for South Johnstone

IDQ60701

Issued at 8:55 pm EST Sunday 20 April 2014 (issued every 10 minutes, with the page automatically refreshed every 10 minutes)

About coastal observations | Map of coastal stations | Coastal observations for QLD | Marine services | Other Formats
Station Details ID: 032037 Name: SOUTH JOHNSTONE EXP STN Lat: -17.61 Lon: 146.00 Height: 18.3 m
Data from the previous 72 hours. | See also: Recent months at South Johnstone
Date/Time
EST
Temp

°C
Wind Pressure Rain
since 9am
mm
Weather Cloud Vis
km
Sea
Height
m
Swell
Dir
 
Speed
knots
Gust
knots
hPa Trend Height
m
Period
s
Dir
20/08:30pm 21.7 WNW 2 4 1016.3 - 0.0 - - - - - - -
20/08:00pm 22.3 WSW 2 5 1015.9 - 0.0 - - - - - - -
20/07:30pm 24.5 SSW 5 7 1015.5 - 0.0 - - - - - - -
20/07:00pm 24.2 S 3 7 1015.4 - 0.0 - - - - - - -
20/06:30pm 23.4 CALM 0 5 1015.2 - 0.0 - - - - - - -
20/06:00pm 24.5 S 3 4 1014.9 - 0.0 - - - - - - -
20/05:30pm 25.3 S 4 6 1014.7 - 0.0 - - - - - - -
20/05:00pm 26.2 SE 7 11 1014.4 - 0.0 - - - - - - -
20/04:30pm 26.7 SSE 9 13 1014.1 - 0.0 - - - - - - -
20/04:00pm 27.3 SE 8 13 1013.8 - 0.0 - - - - - - -
20/03:30pm 27.5 SSE 8 14 1013.6 - 0.0 - - - - - - -
20/03:00pm 27.7 ESE 8 14 1013.4 - 0.0 - - - - - - -
20/02:30pm 27.7 SSE 9 14 1013.6 - 0.0 - - - - - - -
20/02:00pm 27.7 SE 8 14 1013.8 - 0.0 - - - - - - -
20/01:30pm 27.7 SSE 9 14 1014.1 - 0.0 - - - - - - -
20/01:00pm 27.2 SE 8 12 1014.5 - 0.0 - - - - - - -
20/12:30pm 27.4 SSE 9 14 1014.8 - 0.0 - - - - - - -
20/12:00pm 27.8 SE 8 13 1015.1 - 0.0 - - - - - - -
20/11:30am 27.5 SE 9 15 1015.6 - 0.0 - - - - - - -
20/11:00am 27.3 SE 8 13 1015.9 - 0.0 - - - - - - -
20/10:30am 27.1 ESE 8 11 1016.2 - 0.0 - - - - - - -
20/10:00am 26.7 SE 6 11 1016.2 - 0.0 - - - - - - -
20/09:30am 26.1 SE 5 7 1016.1 - 0.0 - - - - - - -
20/09:00am 24.2 CALM 0 3 1015.9 - 2.6 - - - - - - -
20/08:30am 22.1 CALM 0 0 1015.7 - 2.6 - - - - - - -
20/08:00am 20.5 WNW 3 5 1015.6 - 2.6 - - - - - - -
20/07:30am 20.2 W 3 6 1015.3 - 2.6 - - - - - - -
20/07:00am 19.7 NW 3 5 1014.9 - 2.6 - - - - - - -
20/06:30am 19.2 CALM 0 2 1014.7 - 2.6 - - - - - - -
20/06:00am 19.2 CALM 0 0 1014.2 - 2.6 - - - - - - -
20/05:30am 19.3 CALM 0 0 1014.0 - 2.6 - - - - - - -
20/05:00am 19.3 WNW 4 5 1013.9 - 2.6 - - - - - - -
20/04:30am 19.4 CALM 0 1 1013.8 - 2.6 - - - - - - -
20/04:00am 19.4 CALM 0 0 1013.8 - 2.6 - - - - - - -
20/03:30am 19.5 CALM 0 0 1013.8 - 2.6 - - - - - - -
20/03:00am 19.6 CALM 0 3 1013.8 - 2.6 - - - - - - -
20/02:30am 19.7 WNW 2 5 1013.9 - 2.6 - - - - - - -
20/02:00am 19.6 WNW 3 5 1014.0 - 2.6 - - - - - - -
20/01:30am 19.7 CALM 0 0 1014.1 - 2.6 - - - - - - -
20/01:00am 19.9 WNW 3 5 1014.4 - 2.6 - - - - - - -
20/12:30am 20.0 W 2 5 1014.8 - 2.6 - - - - - - -
20/12:00am 20.1 W 3 6 1014.9 - 2.6 - - - - - - -
 
Date/Time
EST
Temp

°C
Wind Pressure Rain
since 9am
mm
Weather Cloud Vis
km
Sea
Height
m
Swell
Dir
 
Speed
knots
Gust
knots
hPa Trend Height
m
Period
s
Dir
19/11:30pm 20.3 CALM 0 3 1015.3 - 2.6 - - - - - - -
19/11:00pm 20.4 W 1 4 1015.4 - 2.6 - - - - - - -
19/10:30pm 20.6 WNW 3 4 1015.7 - 2.6 - - - - - - -
19/10:00pm 20.9 W 3 7 1015.6 - 2.6 - - - - - - -
19/09:30pm 21.2 W 2 5 1015.7 - 2.6 - - - - - - -
19/09:00pm 21.6 WNW 2 4 1015.5 - 2.6 - - - - - - -
19/08:30pm 21.8 W 3 6 1015.4 - 2.6 - - - - - - -
19/08:00pm 21.9 W 4 6 1015.3 - 2.6 - - - - - - -
19/07:30pm 22.2 W 3 5 1014.8 - 2.6 - - - - - - -
19/07:00pm 23.1 CALM 0 0 1014.5 - 2.6 - - - - - - -
19/06:30pm 23.8 CALM 0 0 1014.4 - 2.6 - - - - - - -
19/06:00pm 25.0 S 1 3 1014.2 - 2.6 - - - - - - -
19/05:30pm 25.7 ESE 4 6 1014.0 - 2.6 - - - - - - -
19/05:00pm 26.4 SE 7 9 1013.6 - 2.6 - - - - - - -
19/04:30pm 26.7 ESE 6 10 1013.6 - 2.6 - - - - - - -
19/04:00pm 26.7 ESE 5 8 1013.3 - 2.6 - - - - - - -
19/03:30pm 26.7 ESE 7 11 1013.4 - 2.6 - - - - - - -
19/03:00pm 28.0 E 7 11 1013.4 - 2.6 - - - - - - -
19/02:30pm 28.2 E 9 14 1013.6 - 2.6 - - - - - - -
19/02:00pm 28.2 E 8 12 1013.9 - 2.6 - - - - - - -
19/01:30pm 27.8 E 7 10 1014.1 - 2.6 - - - - - - -
19/01:00pm 28.4 ENE 8 12 1014.5 - 2.4 - - - - - - -
19/12:30pm 27.3 E 6 9 1015.0 - 2.4 - - - - - - -
19/12:00pm 27.1 E 7 10 1015.3 - 2.4 - - - - - - -
19/11:30am 27.1 E 7 11 1015.9 - 2.4 - - - - - - -
19/11:00am 26.3 ESE 7 12 1016.2 - 2.4 - - - - - - -
19/10:30am 26.0 ENE 1 5 1016.4 - 2.4 - - - - - - -
19/10:00am 25.9 ENE 5 7 1016.6 - 0.0 - - - - - - -
19/09:30am 27.2 ESE 5 7 1016.4 - 0.0 - - - - - - -
19/09:00am 26.5 S 1 4 1016.2 - 0.2 - - - - - - -
19/08:30am 24.7 CALM 0 0 1016.1 - 0.2 - - - - - - -
19/08:00am 23.0 WSW 1 4 1016.0 - 0.2 - - - - - - -
19/07:30am 21.6 CALM 0 4 1015.7 - 0.2 - - - - - - -
19/07:00am 20.8 CALM 0 0 1015.6 - 0.2 - - - - - - -
19/06:30am 20.6 W 2 4 1015.3 - 0.2 - - - - - - -
19/06:00am 20.9 W 3 5 1015.0 - 0.2 - - - - - - -
19/05:30am 20.9 WNW 2 3 1014.9 - 0.2 - - - - - - -
19/05:00am 21.1 W 2 5 1014.8 - 0.2 - - - - - - -
19/04:30am 21.3 CALM 0 0 1014.6 - 0.2 - - - - - - -
19/04:00am 21.6 CALM 0 0 1014.6 - 0.2 - - - - - - -
19/03:30am 21.7 CALM 0 0 1014.6 - 0.2 - - - - - - -
19/03:00am 21.9 CALM 0 1 1014.5 - 0.2 - - - - - - -
19/02:30am 21.9 CALM 0 0 1014.7 - 0.2 - - - - - - -
19/02:00am 22.1 CALM 0 0 1014.8 - 0.2 - - - - - - -
19/01:30am 22.3 W 4 6 1014.9 - 0.2 - - - - - - -
19/01:00am 22.4 CALM 0 0 1015.4 - 0.2 - - - - - - -
19/12:30am 22.6 CALM 0 0 1015.8 - 0.2 - - - - - - -
19/12:00am 22.7 WSW 3 5 1016.0 - 0.2 - - - - - - -
 
Date/Time
EST
Temp

°C
Wind Pressure Rain
since 9am
mm
Weather Cloud Vis
km
Sea
Height
m
Swell
Dir
 
Speed
knots
Gust
knots
hPa Trend Height
m
Period
s
Dir
18/11:30pm 22.9 WNW 2 4 1016.2 - 0.2 - - - - - - -
18/11:00pm 22.9 WSW 3 5 1016.2 - 0.2 - - - - - - -
18/10:30pm 23.2 CALM 0 0 1016.4 - 0.2 - - - - - - -
18/10:00pm 23.4 CALM 0 0 1016.5 - 0.2 - - - - - - -
18/09:30pm 23.5 WSW 3 5 1016.6 - 0.2 - - - - - - -
18/09:00pm 23.5 SW 4 7 1016.6 - 0.2 - - - - - - -
18/08:30pm 23.7 NW 1 4 1016.5 - 0.2 - - - - - - -
18/08:00pm 23.7 W 4 7 1015.9 - 0.2 - - - - - - -
18/07:30pm 23.8 W 4 7 1015.5 - 0.2 - - - - - - -
18/07:00pm 24.4 W 1 4 1015.2 - 0.2 - - - - - - -
18/06:30pm 25.3 SSW 3 5 1014.8 - 0.2 - - - - - - -
18/06:00pm 25.5 CALM 0 0 1014.4 - 0.2 - - - - - - -
18/05:30pm 26.2 S 3 5 1014.2 - 0.2 - - - - - - -
18/05:00pm 26.5 ESE 6 8 1013.9 - 0.2 - - - - - - -
18/04:30pm 27.2 SE 5 7 1013.7 - 0.2 - - - - - - -
18/04:00pm 27.3 ESE 5 9 1013.6 - 0.2 - - - - - - -
18/03:30pm 27.6 ESE 6 9 1013.5 - 0.2 - - - - - - -
18/03:00pm 27.7 ESE 6 9 1013.3 - 0.2 - - - - - - -
18/02:30pm 27.7 ESE 7 10 1013.4 - 0.2 - - - - - - -
18/02:00pm 28.1 ESE 7 11 1013.6 - 0.2 - - - - - - -
18/01:30pm 28.2 ESE 8 11 1013.9 - 0.2 - - - - - - -
18/01:00pm 27.9 ESE 8 10 1014.1 - 0.2 - - - - - - -
18/12:30pm 28.6 E 8 12 1014.4 - 0.2 - - - - - - -
18/12:00pm 26.8 E 6 11 1014.7 - 0.2 - - - - - - -
18/11:30am 26.6 E 8 12 1015.0 - 0.2 - - - - - - -
18/11:00am 27.8 ESE 6 10 1015.4 - 0.2 - - - - - - -
18/10:30am 28.3 ESE 5 9 1015.7 - 0.2 - - - - - - -
18/10:00am 27.6 SSE 5 8 1015.8 - 0.0 - - - - - - -
18/09:30am 27.2 S 5 8 1015.8 - 0.0 - - - - - - -
18/09:00am 25.9 SSE 5 6 1015.6 - 4.4 - - - - - - -
18/08:30am 25.0 CALM 0 0 1015.6 - 4.4 - - - - - - -
18/08:00am 23.2 W 2 4 1015.5 - 4.4 - - - - - - -
18/07:30am 23.0 SW 2 6 1015.4 - 4.4 - - - - - - -
18/07:00am 22.5 CALM 0 4 1015.3 - 4.0 - - - - - - -
18/06:30am 22.5 CALM 0 0 1014.7 - 4.0 - - - - - - -
18/06:00am 22.6 CALM 0 0 1014.3 - 4.0 - - - - - - -
18/05:30am 22.7 CALM 0 2 1014.2 - 4.0 - - - - - - -
18/05:00am 22.6 CALM 0 1 1013.9 - 4.0 - - - - - - -
18/04:30am 22.7 W 3 5 1013.7 - 4.0 - - - - - - -
18/04:00am 22.6 W 2 5 1013.8 - 4.0 - - - - - - -
18/03:30am 22.6 W 1 4 1013.7 - 4.0 - - - - - - -
18/03:00am 22.6 CALM 0 0 1013.8 - 4.0 - - - - - - -
18/02:30am 22.6 CALM 0 3 1014.1 - 4.0 - - - - - - -
18/02:00am 22.7 CALM 0 0 1014.3 - 4.0 - - - - - - -
18/01:30am 22.9 CALM 0 1 1014.6 - 4.0 - - - - - - -
18/01:00am 23.1 CALM 0 1 1015.0 - 4.0 - - - - - - -
18/12:30am 23.2 WSW 1 4 1015.5 - 4.0 - - - - - - -
18/12:00am 23.3 S 1 4 1015.7 - 4.0 - - - - - - -
 
Date/Time
EST
Temp

°C
Wind Pressure Rain
since 9am
mm
Weather Cloud Vis
km
Sea
Height
m
Swell
Dir
 
Speed
knots
Gust
knots
hPa Trend Height
m
Period
s
Dir
17/11:30pm 23.6 CALM 0 0 1016.0 - 3.6 - - - - - - -
17/11:00pm 23.7 CALM 0 0 1016.3 - 3.6 - - - - - - -
17/10:30pm 23.7 SW 1 4 1016.4 - 3.4 - - - - - - -
17/10:00pm 24.0 WSW 3 7 1016.3 - 3.0 - - - - - - -
17/09:30pm 24.1 WSW 3 6 1016.2 - 0.0 - - - - - - -
17/09:00pm 24.1 CALM 0 0 1016.0 - 0.0 - - - - - - -

Other Formats:

Comma delimited format used in spreadsheet applications
http://www.bom.gov.au/fwo/IDQ60701/IDQ60701.95292.axf

JavaScript Object Notation format (JSON) in row-major order
http://www.bom.gov.au/fwo/IDQ60701/IDQ60701.95292.json